sensor_id;sensor_type;location;lat;lon;timestamp;pressure;altitude;pressure_sealevel;temperature;humidity
61880;BME280;47817;52.798;27.544;2023-03-04T00:04:07;1013.4;;;2.3;80.7
61880;BME280;47817;52.798;27.544;2023-03-04T00:08:31;1013.4;;;2.3;80.6
61880;BME280;47817;52.798;27.544;2023-03-04T00:13:35;1013.4;;;2.3;80.6
61880;BME280;47817;52.798;27.544;2023-03-04T00:19:08;1013.3;;;2.3;80.5
61880;BME280;47817;52.798;27.544;2023-03-04T00:23:57;1013.2;;;2.3;80.5
61880;BME280;47817;52.798;27.544;2023-03-04T00:29:07;1013;;;2.2;80.5
61880;BME280;47817;52.798;27.544;2023-03-04T00:33:35;1013;;;2.2;80.5
61880;BME280;47817;52.798;27.544;2023-03-04T00:38:23;1012.8;;;2.2;80.4
61880;BME280;47817;52.798;27.544;2023-03-04T00:44:07;1012.6;;;2.2;80.3
61880;BME280;47817;52.798;27.544;2023-03-04T00:48:25;1012.5;;;2.2;80.2
61880;BME280;47817;52.798;27.544;2023-03-04T00:54:07;1012.3;;;2.3;80
61880;BME280;47817;52.798;27.544;2023-03-04T00:58:41;1012.2;;;2.3;79.7
61880;BME280;47817;52.798;27.544;2023-03-04T01:03:35;1012;;;2.3;79.5
61880;BME280;47817;52.798;27.544;2023-03-04T01:09:05;1011.9;;;2.3;79.5
61880;BME280;47817;52.798;27.544;2023-03-04T01:13:43;1011.6;;;2.2;79.8
61880;BME280;47817;52.798;27.544;2023-03-04T01:19:07;1011.6;;;2.1;79.9
61880;BME280;47817;52.798;27.544;2023-03-04T01:23:43;1011.5;;;2.1;79.9
61880;BME280;47817;52.798;27.544;2023-03-04T01:28:23;1011.4;;;2.2;79.7
61880;BME280;47817;52.798;27.544;2023-03-04T01:34:07;1011.3;;;2.1;79.7
61880;BME280;47817;52.798;27.544;2023-03-04T01:38:57;1011.3;;;2.1;79.7
61880;BME280;47817;52.798;27.544;2023-03-04T01:44:08;1011.2;;;2.1;79.7
61880;BME280;47817;52.798;27.544;2023-03-04T01:48:43;1011.1;;;2.1;79.6
61880;BME280;47817;52.798;27.544;2023-03-04T01:53:24;1010.9;;;2;79.8
61880;BME280;47817;52.798;27.544;2023-03-04T01:59:06;1010.8;;;1.9;80.1
61880;BME280;47817;52.798;27.544;2023-03-04T02:03:57;1010.6;;;1.9;80.3
61880;BME280;47817;52.798;27.544;2023-03-04T02:09:05;1010.4;;;1.9;80.4
61880;BME280;47817;52.798;27.544;2023-03-04T02:13:41;1010.3;;;1.9;80.4
61880;BME280;47817;52.798;27.544;2023-03-04T02:18:33;1010.3;;;1.8;80.6
61880;BME280;47817;52.798;27.544;2023-03-04T02:24:09;1010.3;;;1.9;80.6
61880;BME280;47817;52.798;27.544;2023-03-04T02:29:07;1010.3;;;1.8;80.8
61880;BME280;47817;52.798;27.544;2023-03-04T02:33:58;1010.2;;;1.9;80.8
61880;BME280;47817;52.798;27.544;2023-03-04T02:38:29;1010.1;;;1.8;81
61880;BME280;47817;52.798;27.544;2023-03-04T02:43:33;1010.1;;;1.8;81.1
61880;BME280;47817;52.798;27.544;2023-03-04T02:48:43;1010;;;1.8;81
61880;BME280;47817;52.798;27.544;2023-03-04T02:54:13;1010;;;1.8;81.1
61880;BME280;47817;52.798;27.544;2023-03-04T02:58:57;1010;;;1.8;81
61880;BME280;47817;52.798;27.544;2023-03-04T03:03:43;1010;;;1.8;81.1
61880;BME280;47817;52.798;27.544;2023-03-04T03:08:33;1010.1;;;1.7;81.5
61880;BME280;47817;52.798;27.544;2023-03-04T03:13:57;1010.3;;;1.7;81.9
61880;BME280;47817;52.798;27.544;2023-03-04T03:19:05;1010.4;;;1.7;82.1
61880;BME280;47817;52.798;27.544;2023-03-04T03:23:57;1010.4;;;1.7;82.3
61880;BME280;47817;52.798;27.544;2023-03-04T03:28:41;1010.3;;;1.7;82.2
61880;BME280;47817;52.798;27.544;2023-03-04T03:33:23;1010.2;;;1.6;82.2
61880;BME280;47817;52.798;27.544;2023-03-04T03:38:41;1010.3;;;1.5;82.5
61880;BME280;47817;52.798;27.544;2023-03-04T03:44:05;1010.2;;;1.4;82.9
61880;BME280;47817;52.798;27.544;2023-03-04T03:48:43;1010.3;;;1.3;83
61880;BME280;47817;52.798;27.544;2023-03-04T03:53:31;1010;;;1.3;83.1
61880;BME280;47817;52.798;27.544;2023-03-04T03:58:35;1010;;;1.3;83.2
61880;BME280;47817;52.798;27.544;2023-03-04T04:03:23;1009.9;;;1.3;83
61880;BME280;47817;52.798;27.544;2023-03-04T04:09:07;1009.8;;;1.3;82.7
61880;BME280;47817;52.798;27.544;2023-03-04T04:14:07;1009.8;;;1.3;82.3
61880;BME280;47817;52.798;27.544;2023-03-04T04:18:23;1009.6;;;1.2;81.5
61880;BME280;47817;52.798;27.544;2023-03-04T04:23:33;1009.5;;;1.2;81
61880;BME280;47817;52.798;27.544;2023-03-04T04:28:43;1009.6;;;1.2;80.6
61880;BME280;47817;52.798;27.544;2023-03-04T04:34:05;1009.5;;;1.2;80.3
61880;BME280;47817;52.798;27.544;2023-03-04T04:38:57;1009.6;;;1.2;80
61880;BME280;47817;52.798;27.544;2023-03-04T04:43:23;1009.5;;;1.1;79.8
61880;BME280;47817;52.798;27.544;2023-03-04T04:48:35;1009.5;;;1;79.2
61880;BME280;47817;52.798;27.544;2023-03-04T04:53:47;1009.5;;;1;78.2
61880;BME280;47817;52.798;27.544;2023-03-04T04:58:56;1009.5;;;1.1;77.4
61880;BME280;47817;52.798;27.544;2023-03-04T05:03:57;1009.2;;;1.1;77.2
61880;BME280;47817;52.798;27.544;2023-03-04T05:08:41;1009.4;;;1.1;76.9
61880;BME280;47817;52.798;27.544;2023-03-04T05:13:23;1009.1;;;1.1;76.4
61880;BME280;47817;52.798;27.544;2023-03-04T05:18:43;1009.1;;;1.1;76.1
61880;BME280;47817;52.798;27.544;2023-03-04T05:24:07;1009;;;1.2;75.7
61880;BME280;47817;52.798;27.544;2023-03-04T05:29:07;1009;;;1.2;75.4
61880;BME280;47817;52.798;27.544;2023-03-04T05:33:41;1008.7;;;1.2;75.3
61880;BME280;47817;52.798;27.544;2023-03-04T05:38:23;1008.5;;;1.3;75.2
61880;BME280;47817;52.798;27.544;2023-03-04T05:43:39;1008.4;;;1.3;75.1
61880;BME280;47817;52.798;27.544;2023-03-04T05:48:53;1008.4;;;1.4;75
61880;BME280;47817;52.798;27.544;2023-03-04T05:53:47;1008.4;;;1.4;75
61880;BME280;47817;52.798;27.544;2023-03-04T05:58:43;1008.4;;;1.4;74.9
61880;BME280;47817;52.798;27.544;2023-03-04T06:03:23;1008.2;;;1.4;74.9
61880;BME280;47817;52.798;27.544;2023-03-04T06:08:31;1008.2;;;1.4;74.8
61880;BME280;47817;52.798;27.544;2023-03-04T06:14:07;1008.2;;;1.5;74.8
61880;BME280;47817;52.798;27.544;2023-03-04T06:18:55;1008.2;;;1.4;74.8
61880;BME280;47817;52.798;27.544;2023-03-04T06:23:33;1008.1;;;1.4;75.1
61880;BME280;47817;52.798;27.544;2023-03-04T06:28:33;1007.9;;;1.4;75.2
61880;BME280;47817;52.798;27.544;2023-03-04T06:33:43;1007.9;;;1.5;75.1
61880;BME280;47817;52.798;27.544;2023-03-04T06:39:00;1007.8;;;1.5;75.1
61880;BME280;47817;52.798;27.544;2023-03-04T06:43:59;1007.8;;;1.6;75
61880;BME280;47817;52.798;27.544;2023-03-04T06:49:09;1007.7;;;1.6;74.9
61880;BME280;47817;52.798;27.544;2023-03-04T06:53:23;1007.8;;;1.7;74.9
61880;BME280;47817;52.798;27.544;2023-03-04T06:58:41;1007.7;;;1.8;74.7
61880;BME280;47817;52.798;27.544;2023-03-04T07:04:09;1007.8;;;1.7;74.8
61880;BME280;47817;52.798;27.544;2023-03-04T07:08:49;1007.7;;;1.8;74.8
61880;BME280;47817;52.798;27.544;2023-03-04T07:14:07;1007.6;;;1.8;75
61880;BME280;47817;52.798;27.544;2023-03-04T07:18:35;1007.3;;;1.8;75.1
61880;BME280;47817;52.798;27.544;2023-03-04T07:23:23;1006.9;;;1.9;75.2
61880;BME280;47817;52.798;27.544;2023-03-04T07:29:12;1007.1;;;2.3;74.3
61880;BME280;47817;52.798;27.544;2023-03-04T07:34:00;1007.2;;;2.3;73.9
61880;BME280;47817;52.798;27.544;2023-03-04T07:39:06;1007.1;;;2.3;74
61880;BME280;47817;52.798;27.544;2023-03-04T07:43:33;1007;;;2.2;74.2
61880;BME280;47817;52.798;27.544;2023-03-04T07:48:43;1007;;;2.2;74.4
61880;BME280;47817;52.798;27.544;2023-03-04T07:54:09;1007.2;;;2.1;74.8
61880;BME280;47817;52.798;27.544;2023-03-04T07:58:59;1007.2;;;2.2;74.9
61880;BME280;47817;52.798;27.544;2023-03-04T08:04:09;1007.1;;;2.1;75.3
61880;BME280;47817;52.798;27.544;2023-03-04T08:09:02;1007.1;;;2.1;75.9
61880;BME280;47817;52.798;27.544;2023-03-04T08:13:59;1007.1;;;2.1;76.2
61880;BME280;47817;52.798;27.544;2023-03-04T08:19:09;1007.1;;;2.1;76.5
61880;BME280;47817;52.798;27.544;2023-03-04T08:23:49;1007.1;;;2.1;76.8
61880;BME280;47817;52.798;27.544;2023-03-04T08:29:10;1006.9;;;2.1;77.1
61880;BME280;47817;52.798;27.544;2023-03-04T08:33:31;1006.8;;;2.3;77.1
61880;BME280;47817;52.798;27.544;2023-03-04T08:38:31;1006.8;;;2.4;77.2
61880;BME280;47817;52.798;27.544;2023-03-04T08:44:07;1006.7;;;2.5;77.8
61880;BME280;47817;52.798;27.544;2023-03-04T08:48:57;1006.7;;;2.6;78.7
61880;BME280;47817;52.798;27.544;2023-03-04T08:54:09;1006.7;;;2.6;79.4
61880;BME280;47817;52.798;27.544;2023-03-04T08:58:53;1006.7;;;2.6;80.7
61880;BME280;47817;52.798;27.544;2023-03-04T09:03:43;1006.7;;;2.4;81.4
61880;BME280;47817;52.798;27.544;2023-03-04T09:08:59;1006.6;;;2.6;81.4
61880;BME280;47817;52.798;27.544;2023-03-04T09:13:57;1006.5;;;2.8;81.2
61880;BME280;47817;52.798;27.544;2023-03-04T09:19:09;1006.5;;;2.9;80.3
61880;BME280;47817;52.798;27.544;2023-03-04T09:23:23;1006.3;;;3.3;79.2
61880;BME280;47817;52.798;27.544;2023-03-04T09:28:41;1006.4;;;3.6;80.7
61880;BME280;47817;52.798;27.544;2023-03-04T09:34:05;1006.1;;;3.6;82.4
61880;BME280;47817;52.798;27.544;2023-03-04T09:38:57;1006;;;3.6;83
61880;BME280;47817;52.798;27.544;2023-03-04T09:44:12;1006.1;;;3.4;83.5
61880;BME280;47817;52.798;27.544;2023-03-04T09:48:23;1006.2;;;3.1;84.7
61880;BME280;47817;52.798;27.544;2023-03-04T09:53:34;1006.1;;;2.9;85.9
61880;BME280;47817;52.798;27.544;2023-03-04T09:59:10;1006;;;2.9;85.9
61880;BME280;47817;52.798;27.544;2023-03-04T10:03:54;1006;;;3.3;85.4
61880;BME280;47817;52.798;27.544;2023-03-04T10:09:06;1005.8;;;3.5;85.2
61880;BME280;47817;52.798;27.544;2023-03-04T10:13:32;1005.8;;;3.7;85.1
61880;BME280;47817;52.798;27.544;2023-03-04T10:18:32;1005.8;;;3.7;85.6
61880;BME280;47817;52.798;27.544;2023-03-04T10:24:07;1005.7;;;3.9;84.8
61880;BME280;47817;52.798;27.544;2023-03-04T10:28:55;1005.6;;;3.9;84.3
61880;BME280;47817;52.798;27.544;2023-03-04T10:34:05;1005.6;;;3.7;83.8
61880;BME280;47817;52.798;27.544;2023-03-04T10:38:23;1005.5;;;4.2;82.5
61880;BME280;47817;52.798;27.544;2023-03-04T10:44:11;1005.2;;;4.8;81
61880;BME280;47817;52.798;27.544;2023-03-04T10:48:55;1005.1;;;4.8;80.6
61880;BME280;47817;52.798;27.544;2023-03-04T10:53:58;1005.1;;;4.8;80.3
61880;BME280;47817;52.798;27.544;2023-03-04T10:58:53;1005.1;;;4.8;79.8
61880;BME280;47817;52.798;27.544;2023-03-04T11:03:36;1005;;;4.9;79.2
61880;BME280;47817;52.798;27.544;2023-03-04T11:09:16;1005.2;;;4.7;77.4
61880;BME280;47817;52.798;27.544;2023-03-04T11:13:50;1004.9;;;4.8;80
61880;BME280;47817;52.798;27.544;2023-03-04T11:18:48;1004.9;;;4.8;79.9
61880;BME280;47817;52.798;27.544;2023-03-04T11:23:38;1004.8;;;4.7;78.3
61880;BME280;47817;52.798;27.544;2023-03-04T11:29:09;1005;;;4.5;76.5
61880;BME280;47817;52.798;27.544;2023-03-04T11:34:11;1005.2;;;4.2;80.7
61880;BME280;47817;52.798;27.544;2023-03-04T11:38:24;1005.1;;;3.6;84.4
61880;BME280;47817;52.798;27.544;2023-03-04T11:43:45;1005;;;3.9;86
61880;BME280;47817;52.798;27.544;2023-03-04T11:48:57;1004.9;;;4.2;85.6
61880;BME280;47817;52.798;27.544;2023-03-04T11:53:39;1004.8;;;4.6;84.4
61880;BME280;47817;52.798;27.544;2023-03-04T11:59:14;1004.8;;;4.9;81.4
61880;BME280;47817;52.798;27.544;2023-03-04T12:03:26;1004.6;;;5.3;80.5
61880;BME280;47817;52.798;27.544;2023-03-04T12:08:50;1004.6;;;5.3;79.4
61880;BME280;47817;52.798;27.544;2023-03-04T12:13:55;1004.6;;;5.2;78.2
61880;BME280;47817;52.798;27.544;2023-03-04T12:19:02;1004.6;;;5.3;76.1
61880;BME280;47817;52.798;27.544;2023-03-04T12:24:13;1004.6;;;5.5;73.8
61880;BME280;47817;52.798;27.544;2023-03-04T12:28:25;1004.5;;;5.5;75.1
61880;BME280;47817;52.798;27.544;2023-03-04T12:33:38;1004.5;;;5.5;74.7
61880;BME280;47817;52.798;27.544;2023-03-04T12:38:55;1004.5;;;5.6;76.7
61880;BME280;47817;52.798;27.544;2023-03-04T12:43:26;1004.4;;;5.7;78.1
61880;BME280;47817;52.798;27.544;2023-03-04T12:49:31;1004.4;;;5.5;77.7
61880;BME280;47817;52.798;27.544;2023-03-04T12:53:25;1004.4;;;5.4;80.3
61880;BME280;47817;52.798;27.544;2023-03-04T12:58:45;1004.3;;;5.5;79
61880;BME280;47817;52.798;27.544;2023-03-04T13:03:51;1004.2;;;5.2;79
61880;BME280;47817;52.798;27.544;2023-03-04T13:08:25;1004.6;;;4.7;77
61880;BME280;47817;52.798;27.544;2023-03-04T13:14:06;1004.8;;;4;79.8
61880;BME280;47817;52.798;27.544;2023-03-04T13:18:31;1004.7;;;3.4;84.5
61880;BME280;47817;52.798;27.544;2023-03-04T13:23:31;1004.5;;;3.1;85.9
61880;BME280;47817;52.798;27.544;2023-03-04T13:28:43;1004.3;;;3.3;85.7
61880;BME280;47817;52.798;27.544;2023-03-04T13:33:50;1004.4;;;3.2;86.3
61880;BME280;47817;52.798;27.544;2023-03-04T13:39:21;1004.4;;;2.7;88.4
61880;BME280;47817;52.798;27.544;2023-03-04T13:43:24;1004.8;;;2;92.6
61880;BME280;47817;52.798;27.544;2023-03-04T13:48:45;1004.6;;;1.7;94.1
61880;BME280;47817;52.798;27.544;2023-03-04T13:54:05;1004.5;;;1.6;94.3
61880;BME280;47817;52.798;27.544;2023-03-04T13:58:43;1004.5;;;1.5;94.5
61880;BME280;47817;52.798;27.544;2023-03-04T14:04:09;1004.6;;;1.6;95.3
61880;BME280;47817;52.798;27.544;2023-03-04T14:08:23;1004.7;;;1.7;94.9
61880;BME280;47817;52.798;27.544;2023-03-04T14:13:23;1004.9;;;1.6;96
61880;BME280;47817;52.798;27.544;2023-03-04T14:18:43;1004.7;;;1.7;98.1
61880;BME280;47817;52.798;27.544;2023-03-04T14:23:32;1004.4;;;3.2;97.3
61880;BME280;47817;52.798;27.544;2023-03-04T14:29:23;1004.4;;;5.2;89.2
61880;BME280;47817;52.798;27.544;2023-03-04T14:33:33;1004.5;;;4.5;85.8
61880;BME280;47817;52.798;27.544;2023-03-04T14:38:48;1004.5;;;5.5;82.6
61880;BME280;47817;52.798;27.544;2023-03-04T14:44:07;1004.6;;;4.9;79.8
61880;BME280;47817;52.798;27.544;2023-03-04T14:48:31;1004.5;;;3.8;81.7
61880;BME280;47817;52.798;27.544;2023-03-04T14:53:55;1004.4;;;3.2;84.5
61880;BME280;47817;52.798;27.544;2023-03-04T14:59:03;1004.6;;;3;84.6
61880;BME280;47817;52.798;27.544;2023-03-04T15:03:59;1004.4;;;4.6;82.1
61880;BME280;47817;52.798;27.544;2023-03-04T15:08:41;1004.5;;;5.3;78.5
61880;BME280;47817;52.798;27.544;2023-03-04T15:13:44;1004.6;;;3.7;76.3
61880;BME280;47817;52.798;27.544;2023-03-04T15:18:57;1004.5;;;2.8;78.9
61880;BME280;47817;52.798;27.544;2023-03-04T15:23:23;1004.6;;;2.3;79.8
61880;BME280;47817;52.798;27.544;2023-03-04T15:28:45;1004.6;;;1.9;77.9
61880;BME280;47817;52.798;27.544;2023-03-04T15:34:09;1004.6;;;1.7;75.5
61880;BME280;47817;52.798;27.544;2023-03-04T15:38:33;1004.6;;;1.6;75.2
61880;BME280;47817;52.798;27.544;2023-03-04T15:43:55;1004.7;;;1.4;74.6
61880;BME280;47817;52.798;27.544;2023-03-04T15:48:23;1004.7;;;1.4;75.4
61880;BME280;47817;52.798;27.544;2023-03-04T15:53:46;1005;;;1.3;75.6
61880;BME280;47817;52.798;27.544;2023-03-04T15:58:52;1005.2;;;1.2;71.3
61880;BME280;47817;52.798;27.544;2023-03-04T16:03:23;1005.4;;;1.1;69.5
61880;BME280;47817;52.798;27.544;2023-03-04T16:08:55;1005.4;;;0.6;75.8
61880;BME280;47817;52.798;27.544;2023-03-04T16:13:31;1005.2;;;0.4;76.7
61880;BME280;47817;52.798;27.544;2023-03-04T16:18:23;1005.1;;;0.4;78.4
61880;BME280;47817;52.798;27.544;2023-03-04T16:24:09;1005.2;;;0.2;79.1
61880;BME280;47817;52.798;27.544;2023-03-04T16:28:45;1005.2;;;0.2;79.8
61880;BME280;47817;52.798;27.544;2023-03-04T16:33:53;1005.4;;;0;80.6
61880;BME280;47817;52.798;27.544;2023-03-04T16:38:41;1005.4;;;-0.1;81.6
61880;BME280;47817;52.798;27.544;2023-03-04T16:43:43;1005.4;;;-0.2;81.9
61880;BME280;47817;52.798;27.544;2023-03-04T16:49:05;1005.4;;;-0.2;81.4
61880;BME280;47817;52.798;27.544;2023-03-04T16:53:46;1005.3;;;-0.1;80.8
61880;BME280;47817;52.798;27.544;2023-03-04T16:58:55;1005.1;;;-0.1;79.6
61880;BME280;47817;52.798;27.544;2023-03-04T17:03:23;1005.1;;;-0.1;78.4
61880;BME280;47817;52.798;27.544;2023-03-04T17:08:23;1005.2;;;0;77.5
61880;BME280;47817;52.798;27.544;2023-03-04T17:14:05;1005.2;;;0;77
61880;BME280;47817;52.798;27.544;2023-03-04T17:18:23;1005.3;;;0;76.6
61880;BME280;47817;52.798;27.544;2023-03-04T17:23:55;1005.5;;;0;76.3
61880;BME280;47817;52.798;27.544;2023-03-04T17:28:32;1005.6;;;0;75.6
61880;BME280;47817;52.798;27.544;2023-03-04T17:33:45;1005.6;;;0;74.1
61880;BME280;47817;52.798;27.544;2023-03-04T17:39:05;1005.5;;;-0.2;73.3
61880;BME280;47817;52.798;27.544;2023-03-04T17:43:43;1005.7;;;-0.3;72.3
61880;BME280;47817;52.798;27.544;2023-03-04T17:48:56;1005.9;;;-0.4;71.8
61880;BME280;47817;52.798;27.544;2023-03-04T17:53:33;1006.2;;;-0.5;73.2
61880;BME280;47817;52.798;27.544;2023-03-04T17:58:23;1006;;;-0.8;76.5
61880;BME280;47817;52.798;27.544;2023-03-04T18:04:05;1006;;;-1;79.9
61880;BME280;47817;52.798;27.544;2023-03-04T18:08:45;1005.9;;;-1.3;80.3
61880;BME280;47817;52.798;27.544;2023-03-04T18:13:45;1006;;;-1.4;79.2
61880;BME280;47817;52.798;27.544;2023-03-04T18:18:31;1006;;;-1.4;78.2
61880;BME280;47817;52.798;27.544;2023-03-04T18:23:45;1006;;;-1.5;77.9
61880;BME280;47817;52.798;27.544;2023-03-04T18:29:05;1005.9;;;-1.5;77.6
61880;BME280;47817;52.798;27.544;2023-03-04T18:33:36;1006;;;-1.6;77.6
61880;BME280;47817;52.798;27.544;2023-03-04T18:38:55;1006.1;;;-1.7;76.6
61880;BME280;47817;52.798;27.544;2023-03-04T18:43:33;1006.1;;;-1.7;74.5
61880;BME280;47817;52.798;27.544;2023-03-04T18:48:46;1006.2;;;-1.7;72.6
61880;BME280;47817;52.798;27.544;2023-03-04T18:53:55;1006.1;;;-1.7;71.1
61880;BME280;47817;52.798;27.544;2023-03-04T18:58:35;1006.1;;;-1.7;69.5
61880;BME280;47817;52.798;27.544;2023-03-04T19:03:55;1006.1;;;-1.7;68.5
61880;BME280;47817;52.798;27.544;2023-03-04T19:08:31;1006.3;;;-1.7;66.2
61880;BME280;47817;52.798;27.544;2023-03-04T19:13:45;1006.2;;;-1.7;65.1
61880;BME280;47817;52.798;27.544;2023-03-04T19:19:05;1006.3;;;-1.7;63.9
61880;BME280;47817;52.798;27.544;2023-03-04T19:23:45;1006.3;;;-1.7;62.8
61880;BME280;47817;52.798;27.544;2023-03-04T19:28:55;1006.3;;;-1.6;62.4
61880;BME280;47817;52.798;27.544;2023-03-04T19:33:23;1006.4;;;-1.5;62.4
61880;BME280;47817;52.798;27.544;2023-03-04T19:38:23;1006.4;;;-1.4;62.2
61880;BME280;47817;52.798;27.544;2023-03-04T19:44:05;1006.4;;;-1.4;62.4
61880;BME280;47817;52.798;27.544;2023-03-04T19:48:31;1006.6;;;-1.4;61.7
61880;BME280;47817;52.798;27.544;2023-03-04T19:53:55;1006.5;;;-1.3;61.9
61880;BME280;47817;52.798;27.544;2023-03-04T19:58:41;1006.8;;;-1.3;62.2
61880;BME280;47817;52.798;27.544;2023-03-04T20:03:45;1006.6;;;-1.3;62.3
61880;BME280;47817;52.798;27.544;2023-03-04T20:09:05;1006.6;;;-1.3;62.8
61880;BME280;47817;52.798;27.544;2023-03-04T20:13:35;1006.5;;;-1.3;62.4
61880;BME280;47817;52.798;27.544;2023-03-04T20:19:05;1006.7;;;-1.3;62.4
61880;BME280;47817;52.798;27.544;2023-03-04T20:23:23;1006.6;;;-1.2;62.3
61880;BME280;47817;52.798;27.544;2023-03-04T20:28:45;1006.6;;;-1.2;62.3
61880;BME280;47817;52.798;27.544;2023-03-04T20:33:49;1006.7;;;-1.1;62.4
61880;BME280;47817;52.798;27.544;2023-03-04T20:38:45;1006.8;;;-1.2;62.2
61880;BME280;47817;52.798;27.544;2023-03-04T20:43:53;1006.8;;;-1.2;62.1
61880;BME280;47817;52.798;27.544;2023-03-04T20:48:39;1006.8;;;-1.2;61.9
61880;BME280;47817;52.798;27.544;2023-03-04T20:54:05;1006.9;;;-1.2;62.1
61880;BME280;47817;52.798;27.544;2023-03-04T20:59:08;1007;;;-1.2;62.7
61880;BME280;47817;52.798;27.544;2023-03-04T21:03:23;1007.2;;;-1.2;63.2
61880;BME280;47817;52.798;27.544;2023-03-04T21:08:55;1007.1;;;-1.2;64.5
61880;BME280;47817;52.798;27.544;2023-03-04T21:13:31;1007.1;;;-1.2;65.5
61880;BME280;47817;52.798;27.544;2023-03-04T21:18:47;1007.2;;;-1.1;66.1
61880;BME280;47817;52.798;27.544;2023-03-04T21:24:08;1007;;;-1.2;66.5
61880;BME280;47817;52.798;27.544;2023-03-04T21:28:23;1007;;;-1.2;67.1
61880;BME280;47817;52.798;27.544;2023-03-04T21:33:55;1007;;;-1.1;67.3
61880;BME280;47817;52.798;27.544;2023-03-04T21:38:33;1006.9;;;-1.1;67.5
61880;BME280;47817;52.798;27.544;2023-03-04T21:43:47;1007;;;-1;67.7
61880;BME280;47817;52.798;27.544;2023-03-04T21:49:09;1007;;;-1;67.7
61880;BME280;47817;52.798;27.544;2023-03-04T21:53:23;1007;;;-1;67.9
61880;BME280;47817;52.798;27.544;2023-03-04T21:58:57;1006.9;;;-1;68.2
61880;BME280;47817;52.798;27.544;2023-03-04T22:03:23;1007.1;;;-1;68.7
61880;BME280;47817;52.798;27.544;2023-03-04T22:08:45;1007.1;;;-1.1;68.8
61880;BME280;47817;52.798;27.544;2023-03-04T22:14:09;1007.2;;;-1.1;69.3
61880;BME280;47817;52.798;27.544;2023-03-04T22:18:36;1007.1;;;-1.1;69.5
61880;BME280;47817;52.798;27.544;2023-03-04T22:23:55;1007.1;;;-1.1;69.4
61880;BME280;47817;52.798;27.544;2023-03-04T22:28:33;1007.2;;;-1.1;69.6
61880;BME280;47817;52.798;27.544;2023-03-04T22:33:55;1007.1;;;-1;69.8
61880;BME280;47817;52.798;27.544;2023-03-04T22:39:08;1007.2;;;-0.9;69.7
61880;BME280;47817;52.798;27.544;2023-03-04T22:43:23;1007.2;;;-0.9;69.6
61880;BME280;47817;52.798;27.544;2023-03-04T22:48:45;1007.3;;;-0.8;69.5
61880;BME280;47817;52.798;27.544;2023-03-04T22:53:55;1007.2;;;-0.8;69.4
61880;BME280;47817;52.798;27.544;2023-03-04T22:58:57;1007.4;;;-0.7;69.2
61880;BME280;47817;52.798;27.544;2023-03-04T23:03:59;1007.2;;;-0.7;69.3
61880;BME280;47817;52.798;27.544;2023-03-04T23:08:23;1007.4;;;-0.6;69.2
61880;BME280;47817;52.798;27.544;2023-03-04T23:13:57;1007.6;;;-0.6;68.8
61880;BME280;47817;52.798;27.544;2023-03-04T23:18:42;1007.5;;;-0.6;68.9
61880;BME280;47817;52.798;27.544;2023-03-04T23:23:57;1007.5;;;-0.6;68.9
61880;BME280;47817;52.798;27.544;2023-03-04T23:28:53;1007.6;;;-0.5;68.8
61880;BME280;47817;52.798;27.544;2023-03-04T23:33:33;1007.7;;;-0.5;68.8
61880;BME280;47817;52.798;27.544;2023-03-04T23:38:58;1007.6;;;-0.5;68.5
61880;BME280;47817;52.798;27.544;2023-03-04T23:43:31;1007.6;;;-0.4;68.6
61880;BME280;47817;52.798;27.544;2023-03-04T23:48:57;1007.8;;;-0.3;68.4
61880;BME280;47817;52.798;27.544;2023-03-04T23:54:07;1007.8;;;-0.3;68.1
61880;BME280;47817;52.798;27.544;2023-03-04T23:58:45;1007.7;;;-0.3;68.1
